sensor_id;sensor_type;location;lat;lon;timestamp;P1;durP1;ratioP1;P2;durP2;ratioP2
26223;SDS011;14820;48.682;8.890;2022-08-05T00:01:41;4.47;;;2.38;;
26223;SDS011;14820;48.682;8.890;2022-08-05T00:04:07;2.95;;;1.95;;
26223;SDS011;14820;48.682;8.890;2022-08-05T00:06:32;3.55;;;2.22;;
26223;SDS011;14820;48.682;8.890;2022-08-05T00:08:58;4.07;;;2.00;;
26223;SDS011;14820;48.682;8.890;2022-08-05T00:11:25;2.58;;;2.20;;
26223;SDS011;14820;48.682;8.890;2022-08-05T00:13:51;3.28;;;2.30;;
26223;SDS011;14820;48.682;8.890;2022-08-05T00:16:16;3.90;;;2.25;;
26223;SDS011;14820;48.682;8.890;2022-08-05T00:18:43;2.53;;;2.03;;
26223;SDS011;14820;48.682;8.890;2022-08-05T00:21:11;2.97;;;2.22;;
26223;SDS011;14820;48.682;8.890;2022-08-05T00:23:38;2.60;;;1.88;;
26223;SDS011;14820;48.682;8.890;2022-08-05T00:26:04;2.42;;;2.08;;
26223;SDS011;14820;48.682;8.890;2022-08-05T00:28:30;2.40;;;2.10;;
26223;SDS011;14820;48.682;8.890;2022-08-05T00:30:56;3.22;;;2.10;;
26223;SDS011;14820;48.682;8.890;2022-08-05T00:33:21;2.65;;;1.98;;
26223;SDS011;14820;48.682;8.890;2022-08-05T00:35:47;2.40;;;2.20;;
26223;SDS011;14820;48.682;8.890;2022-08-05T00:38:13;4.35;;;2.17;;
26223;SDS011;14820;48.682;8.890;2022-08-05T00:40:48;2.53;;;1.98;;
26223;SDS011;14820;48.682;8.890;2022-08-05T00:43:15;2.15;;;1.90;;
26223;SDS011;14820;48.682;8.890;2022-08-05T00:45:41;2.42;;;2.05;;
26223;SDS011;14820;48.682;8.890;2022-08-05T00:48:12;3.47;;;2.28;;
26223;SDS011;14820;48.682;8.890;2022-08-05T00:50:40;3.63;;;2.00;;
26223;SDS011;14820;48.682;8.890;2022-08-05T00:53:06;2.83;;;2.05;;
26223;SDS011;14820;48.682;8.890;2022-08-05T00:55:32;3.45;;;1.95;;
26223;SDS011;14820;48.682;8.890;2022-08-05T00:57:58;4.05;;;2.45;;
26223;SDS011;14820;48.682;8.890;2022-08-05T01:00:25;3.03;;;2.17;;
26223;SDS011;14820;48.682;8.890;2022-08-05T01:02:51;4.30;;;2.00;;
26223;SDS011;14820;48.682;8.890;2022-08-05T01:05:17;2.38;;;2.00;;
26223;SDS011;14820;48.682;8.890;2022-08-05T01:07:43;2.35;;;2.03;;
26223;SDS011;14820;48.682;8.890;2022-08-05T01:10:09;6.65;;;2.40;;
26223;SDS011;14820;48.682;8.890;2022-08-05T01:12:39;2.20;;;2.00;;
26223;SDS011;14820;48.682;8.890;2022-08-05T01:15:11;3.50;;;2.20;;
26223;SDS011;14820;48.682;8.890;2022-08-05T01:17:39;2.30;;;2.10;;
26223;SDS011;14820;48.682;8.890;2022-08-05T01:20:31;2.50;;;2.20;;
26223;SDS011;14820;48.682;8.890;2022-08-05T01:26:06;2.70;;;2.13;;
26223;SDS011;14820;48.682;8.890;2022-08-05T01:29:00;2.60;;;2.10;;
26223;SDS011;14820;48.682;8.890;2022-08-05T01:31:41;4.07;;;2.20;;
26223;SDS011;14820;48.682;8.890;2022-08-05T01:34:11;3.22;;;2.13;;
26223;SDS011;14820;48.682;8.890;2022-08-05T01:37:18;6.22;;;2.20;;
26223;SDS011;14820;48.682;8.890;2022-08-05T01:39:48;5.60;;;2.45;;
26223;SDS011;14820;48.682;8.890;2022-08-05T01:42:18;2.30;;;2.10;;
26223;SDS011;14820;48.682;8.890;2022-08-05T01:44:45;5.47;;;2.40;;
26223;SDS011;14820;48.682;8.890;2022-08-05T01:47:13;3.42;;;2.58;;
26223;SDS011;14820;48.682;8.890;2022-08-05T01:49:42;3.55;;;2.30;;
26223;SDS011;14820;48.682;8.890;2022-08-05T01:52:09;3.53;;;2.35;;
26223;SDS011;14820;48.682;8.890;2022-08-05T01:54:39;2.58;;;2.33;;
26223;SDS011;14820;48.682;8.890;2022-08-05T01:57:08;4.10;;;2.42;;
26223;SDS011;14820;48.682;8.890;2022-08-05T01:59:35;3.42;;;2.20;;
26223;SDS011;14820;48.682;8.890;2022-08-05T02:02:03;5.32;;;2.20;;
26223;SDS011;14820;48.682;8.890;2022-08-05T02:04:31;3.55;;;2.63;;
26223;SDS011;14820;48.682;8.890;2022-08-05T02:07:00;4.30;;;2.30;;
26223;SDS011;14820;48.682;8.890;2022-08-05T02:09:26;2.55;;;1.92;;
26223;SDS011;14820;48.682;8.890;2022-08-05T02:12:12;3.10;;;2.28;;
26223;SDS011;14820;48.682;8.890;2022-08-05T02:17:51;4.63;;;2.50;;
26223;SDS011;14820;48.682;8.890;2022-08-05T02:20:29;3.25;;;2.30;;
26223;SDS011;14820;48.682;8.890;2022-08-05T02:23:05;3.17;;;2.40;;
26223;SDS011;14820;48.682;8.890;2022-08-05T02:25:34;2.95;;;2.03;;
26223;SDS011;14820;48.682;8.890;2022-08-05T02:28:01;3.38;;;2.75;;
26223;SDS011;14820;48.682;8.890;2022-08-05T02:30:36;3.78;;;2.30;;
26223;SDS011;14820;48.682;8.890;2022-08-05T02:33:12;5.90;;;2.67;;
26223;SDS011;14820;48.682;8.890;2022-08-05T02:35:41;4.40;;;2.75;;
26223;SDS011;14820;48.682;8.890;2022-08-05T02:38:08;3.28;;;2.28;;
26223;SDS011;14820;48.682;8.890;2022-08-05T02:40:35;6.78;;;2.65;;
26223;SDS011;14820;48.682;8.890;2022-08-05T02:43:04;8.45;;;2.78;;
26223;SDS011;14820;48.682;8.890;2022-08-05T02:45:30;5.43;;;2.50;;
26223;SDS011;14820;48.682;8.890;2022-08-05T02:47:57;6.22;;;2.38;;
26223;SDS011;14820;48.682;8.890;2022-08-05T02:50:25;5.20;;;3.05;;
26223;SDS011;14820;48.682;8.890;2022-08-05T02:52:52;7.13;;;2.58;;
26223;SDS011;14820;48.682;8.890;2022-08-05T02:55:18;3.85;;;2.70;;
26223;SDS011;14820;48.682;8.890;2022-08-05T02:57:46;5.93;;;2.58;;
26223;SDS011;14820;48.682;8.890;2022-08-05T03:00:12;3.25;;;2.42;;
26223;SDS011;14820;48.682;8.890;2022-08-05T03:02:39;3.03;;;2.33;;
26223;SDS011;14820;48.682;8.890;2022-08-05T03:05:08;3.28;;;2.70;;
26223;SDS011;14820;48.682;8.890;2022-08-05T03:07:35;5.30;;;2.42;;
26223;SDS011;14820;48.682;8.890;2022-08-05T03:10:02;4.82;;;2.53;;
26223;SDS011;14820;48.682;8.890;2022-08-05T03:12:29;4.55;;;2.90;;
26223;SDS011;14820;48.682;8.890;2022-08-05T03:14:55;5.10;;;2.70;;
26223;SDS011;14820;48.682;8.890;2022-08-05T03:17:21;5.88;;;2.63;;
26223;SDS011;14820;48.682;8.890;2022-08-05T03:19:47;3.85;;;2.50;;
26223;SDS011;14820;48.682;8.890;2022-08-05T03:22:13;7.88;;;2.38;;
26223;SDS011;14820;48.682;8.890;2022-08-05T03:24:39;7.55;;;2.58;;
26223;SDS011;14820;48.682;8.890;2022-08-05T03:27:09;4.00;;;2.63;;
26223;SDS011;14820;48.682;8.890;2022-08-05T03:29:35;4.78;;;2.88;;
26223;SDS011;14820;48.682;8.890;2022-08-05T03:32:01;3.67;;;2.40;;
26223;SDS011;14820;48.682;8.890;2022-08-05T03:34:28;3.67;;;2.30;;
26223;SDS011;14820;48.682;8.890;2022-08-05T03:36:54;3.38;;;2.50;;
26223;SDS011;14820;48.682;8.890;2022-08-05T03:39:20;4.43;;;2.63;;
26223;SDS011;14820;48.682;8.890;2022-08-05T03:41:46;7.47;;;2.55;;
26223;SDS011;14820;48.682;8.890;2022-08-05T03:44:11;7.93;;;2.70;;
26223;SDS011;14820;48.682;8.890;2022-08-05T03:46:37;5.82;;;2.50;;
26223;SDS011;14820;48.682;8.890;2022-08-05T03:49:03;3.17;;;2.53;;
26223;SDS011;14820;48.682;8.890;2022-08-05T03:51:34;5.38;;;2.60;;
26223;SDS011;14820;48.682;8.890;2022-08-05T03:56:39;4.28;;;2.45;;
26223;SDS011;14820;48.682;8.890;2022-08-05T03:59:16;4.88;;;2.92;;
26223;SDS011;14820;48.682;8.890;2022-08-05T04:01:48;10.35;;;2.78;;
26223;SDS011;14820;48.682;8.890;2022-08-05T04:04:16;5.07;;;2.58;;
26223;SDS011;14820;48.682;8.890;2022-08-05T04:06:45;3.80;;;2.65;;
26223;SDS011;14820;48.682;8.890;2022-08-05T04:09:11;5.18;;;2.67;;
26223;SDS011;14820;48.682;8.890;2022-08-05T04:11:37;4.82;;;2.80;;
26223;SDS011;14820;48.682;8.890;2022-08-05T04:14:03;4.35;;;3.03;;
26223;SDS011;14820;48.682;8.890;2022-08-05T04:16:31;5.15;;;2.70;;
26223;SDS011;14820;48.682;8.890;2022-08-05T04:18:59;4.90;;;3.03;;
26223;SDS011;14820;48.682;8.890;2022-08-05T04:21:25;3.97;;;2.78;;
26223;SDS011;14820;48.682;8.890;2022-08-05T04:23:51;5.20;;;2.67;;
26223;SDS011;14820;48.682;8.890;2022-08-05T04:26:17;5.15;;;2.97;;
26223;SDS011;14820;48.682;8.890;2022-08-05T04:28:43;6.25;;;2.90;;
26223;SDS011;14820;48.682;8.890;2022-08-05T04:31:09;7.13;;;2.95;;
26223;SDS011;14820;48.682;8.890;2022-08-05T04:33:35;5.15;;;2.75;;
26223;SDS011;14820;48.682;8.890;2022-08-05T04:36:00;7.07;;;3.40;;
26223;SDS011;14820;48.682;8.890;2022-08-05T04:38:26;5.07;;;3.15;;
26223;SDS011;14820;48.682;8.890;2022-08-05T04:40:52;6.80;;;3.03;;
26223;SDS011;14820;48.682;8.890;2022-08-05T04:43:17;4.57;;;3.08;;
26223;SDS011;14820;48.682;8.890;2022-08-05T04:45:43;7.28;;;3.10;;
26223;SDS011;14820;48.682;8.890;2022-08-05T04:48:10;5.32;;;3.25;;
26223;SDS011;14820;48.682;8.890;2022-08-05T04:50:43;7.13;;;3.33;;
26223;SDS011;14820;48.682;8.890;2022-08-05T04:53:13;6.03;;;3.20;;
26223;SDS011;14820;48.682;8.890;2022-08-05T04:55:41;5.55;;;3.47;;
26223;SDS011;14820;48.682;8.890;2022-08-05T04:58:07;4.32;;;3.30;;
26223;SDS011;14820;48.682;8.890;2022-08-05T05:00:35;11.93;;;3.60;;
26223;SDS011;14820;48.682;8.890;2022-08-05T05:03:01;7.53;;;3.22;;
26223;SDS011;14820;48.682;8.890;2022-08-05T05:05:28;11.77;;;3.67;;
26223;SDS011;14820;48.682;8.890;2022-08-05T05:07:55;5.25;;;2.97;;
26223;SDS011;14820;48.682;8.890;2022-08-05T05:10:25;6.78;;;3.45;;
26223;SDS011;14820;48.682;8.890;2022-08-05T05:12:51;4.63;;;3.10;;
26223;SDS011;14820;48.682;8.890;2022-08-05T05:15:16;5.03;;;3.13;;
26223;SDS011;14820;48.682;8.890;2022-08-05T05:17:42;7.53;;;3.40;;
26223;SDS011;14820;48.682;8.890;2022-08-05T05:20:08;7.40;;;3.45;;
26223;SDS011;14820;48.682;8.890;2022-08-05T05:22:35;7.57;;;3.20;;
26223;SDS011;14820;48.682;8.890;2022-08-05T05:25:01;4.60;;;3.00;;
26223;SDS011;14820;48.682;8.890;2022-08-05T05:27:28;7.38;;;3.13;;
26223;SDS011;14820;48.682;8.890;2022-08-05T05:29:55;8.00;;;3.40;;
26223;SDS011;14820;48.682;8.890;2022-08-05T05:32:21;7.60;;;3.17;;
26223;SDS011;14820;48.682;8.890;2022-08-05T05:34:47;11.48;;;3.50;;
26223;SDS011;14820;48.682;8.890;2022-08-05T05:37:13;4.78;;;3.50;;
26223;SDS011;14820;48.682;8.890;2022-08-05T05:39:41;5.70;;;3.47;;
26223;SDS011;14820;48.682;8.890;2022-08-05T05:42:07;10.05;;;2.90;;
26223;SDS011;14820;48.682;8.890;2022-08-05T05:44:33;7.30;;;3.15;;
26223;SDS011;14820;48.682;8.890;2022-08-05T05:46:59;5.53;;;3.55;;
26223;SDS011;14820;48.682;8.890;2022-08-05T05:49:25;5.18;;;3.30;;
26223;SDS011;14820;48.682;8.890;2022-08-05T05:51:51;7.03;;;3.25;;
26223;SDS011;14820;48.682;8.890;2022-08-05T05:54:17;6.28;;;3.60;;
26223;SDS011;14820;48.682;8.890;2022-08-05T05:56:43;12.20;;;3.70;;
26223;SDS011;14820;48.682;8.890;2022-08-05T05:59:09;8.50;;;4.18;;
26223;SDS011;14820;48.682;8.890;2022-08-05T06:01:35;11.18;;;4.35;;
26223;SDS011;14820;48.682;8.890;2022-08-05T06:04:02;11.18;;;4.40;;
26223;SDS011;14820;48.682;8.890;2022-08-05T06:06:28;8.80;;;4.40;;
26223;SDS011;14820;48.682;8.890;2022-08-05T06:08:54;9.13;;;4.15;;
26223;SDS011;14820;48.682;8.890;2022-08-05T06:11:20;11.85;;;3.83;;
26223;SDS011;14820;48.682;8.890;2022-08-05T06:13:45;7.70;;;3.92;;
26223;SDS011;14820;48.682;8.890;2022-08-05T06:16:11;5.75;;;3.63;;
26223;SDS011;14820;48.682;8.890;2022-08-05T06:18:37;7.57;;;3.85;;
26223;SDS011;14820;48.682;8.890;2022-08-05T06:21:03;6.13;;;3.30;;
26223;SDS011;14820;48.682;8.890;2022-08-05T06:23:29;7.35;;;3.53;;
26223;SDS011;14820;48.682;8.890;2022-08-05T06:25:55;5.28;;;3.25;;
26223;SDS011;14820;48.682;8.890;2022-08-05T06:28:21;7.82;;;3.70;;
26223;SDS011;14820;48.682;8.890;2022-08-05T06:30:47;7.03;;;2.85;;
26223;SDS011;14820;48.682;8.890;2022-08-05T06:33:12;3.42;;;2.78;;
26223;SDS011;14820;48.682;8.890;2022-08-05T06:35:38;5.57;;;2.97;;
26223;SDS011;14820;48.682;8.890;2022-08-05T06:38:04;5.18;;;2.70;;
26223;SDS011;14820;48.682;8.890;2022-08-05T06:40:29;5.80;;;2.70;;
26223;SDS011;14820;48.682;8.890;2022-08-05T06:42:55;5.47;;;2.40;;
26223;SDS011;14820;48.682;8.890;2022-08-05T06:45:21;7.00;;;2.25;;
26223;SDS011;14820;48.682;8.890;2022-08-05T06:47:47;7.03;;;2.63;;
26223;SDS011;14820;48.682;8.890;2022-08-05T06:50:13;2.65;;;2.13;;
26223;SDS011;14820;48.682;8.890;2022-08-05T06:52:39;2.90;;;2.13;;
26223;SDS011;14820;48.682;8.890;2022-08-05T06:55:05;3.53;;;1.90;;
26223;SDS011;14820;48.682;8.890;2022-08-05T06:57:31;3.75;;;1.75;;
26223;SDS011;14820;48.682;8.890;2022-08-05T06:59:57;2.90;;;1.58;;
26223;SDS011;14820;48.682;8.890;2022-08-05T07:02:22;2.17;;;1.80;;
26223;SDS011;14820;48.682;8.890;2022-08-05T07:04:48;2.15;;;1.80;;
26223;SDS011;14820;48.682;8.890;2022-08-05T07:07:14;4.55;;;2.00;;
26223;SDS011;14820;48.682;8.890;2022-08-05T07:09:39;2.97;;;1.45;;
26223;SDS011;14820;48.682;8.890;2022-08-05T07:12:05;1.75;;;1.52;;
26223;SDS011;14820;48.682;8.890;2022-08-05T07:14:31;1.85;;;1.50;;
26223;SDS011;14820;48.682;8.890;2022-08-05T07:17:15;2.47;;;1.60;;
26223;SDS011;14820;48.682;8.890;2022-08-05T07:19:41;3.05;;;1.60;;
26223;SDS011;14820;48.682;8.890;2022-08-05T07:22:06;2.65;;;1.67;;
26223;SDS011;14820;48.682;8.890;2022-08-05T07:24:32;3.67;;;1.75;;
26223;SDS011;14820;48.682;8.890;2022-08-05T07:26:58;2.92;;;1.67;;
26223;SDS011;14820;48.682;8.890;2022-08-05T07:29:24;2.88;;;1.23;;
26223;SDS011;14820;48.682;8.890;2022-08-05T07:31:49;1.45;;;1.33;;
26223;SDS011;14820;48.682;8.890;2022-08-05T07:34:15;2.67;;;1.60;;
26223;SDS011;14820;48.682;8.890;2022-08-05T07:36:41;1.73;;;1.40;;
26223;SDS011;14820;48.682;8.890;2022-08-05T07:39:07;1.85;;;1.60;;
26223;SDS011;14820;48.682;8.890;2022-08-05T07:41:33;2.17;;;1.85;;
26223;SDS011;14820;48.682;8.890;2022-08-05T07:43:59;2.42;;;1.55;;
26223;SDS011;14820;48.682;8.890;2022-08-05T07:46:27;3.38;;;1.83;;
26223;SDS011;14820;48.682;8.890;2022-08-05T07:48:55;2.55;;;1.50;;
26223;SDS011;14820;48.682;8.890;2022-08-05T07:51:23;1.83;;;1.40;;
26223;SDS011;14820;48.682;8.890;2022-08-05T07:53:49;5.45;;;1.77;;
26223;SDS011;14820;48.682;8.890;2022-08-05T07:56:15;2.67;;;1.73;;
26223;SDS011;14820;48.682;8.890;2022-08-05T07:58:41;2.38;;;1.95;;
26223;SDS011;14820;48.682;8.890;2022-08-05T08:01:06;1.73;;;1.40;;
26223;SDS011;14820;48.682;8.890;2022-08-05T08:03:32;1.70;;;1.60;;
26223;SDS011;14820;48.682;8.890;2022-08-05T08:05:58;2.65;;;1.60;;
26223;SDS011;14820;48.682;8.890;2022-08-05T08:08:24;1.63;;;1.52;;
26223;SDS011;14820;48.682;8.890;2022-08-05T08:10:49;3.92;;;1.90;;
26223;SDS011;14820;48.682;8.890;2022-08-05T08:13:15;3.50;;;1.60;;
26223;SDS011;14820;48.682;8.890;2022-08-05T08:15:41;1.70;;;1.55;;
26223;SDS011;14820;48.682;8.890;2022-08-05T08:18:06;1.88;;;1.45;;
26223;SDS011;14820;48.682;8.890;2022-08-05T08:20:32;2.40;;;1.77;;
26223;SDS011;14820;48.682;8.890;2022-08-05T08:22:58;2.47;;;1.50;;
26223;SDS011;14820;48.682;8.890;2022-08-05T08:25:25;1.70;;;1.60;;
26223;SDS011;14820;48.682;8.890;2022-08-05T08:27:55;2.60;;;1.50;;
26223;SDS011;14820;48.682;8.890;2022-08-05T08:30:20;2.25;;;1.50;;
26223;SDS011;14820;48.682;8.890;2022-08-05T08:32:46;3.28;;;1.67;;
26223;SDS011;14820;48.682;8.890;2022-08-05T08:35:12;1.70;;;1.45;;
26223;SDS011;14820;48.682;8.890;2022-08-05T08:37:39;2.22;;;1.60;;
26223;SDS011;14820;48.682;8.890;2022-08-05T08:40:05;2.63;;;1.60;;
26223;SDS011;14820;48.682;8.890;2022-08-05T08:42:31;2.10;;;1.60;;
26223;SDS011;14820;48.682;8.890;2022-08-05T08:44:57;4.05;;;1.80;;
26223;SDS011;14820;48.682;8.890;2022-08-05T08:47:23;1.58;;;1.48;;
26223;SDS011;14820;48.682;8.890;2022-08-05T08:49:51;1.83;;;1.50;;
26223;SDS011;14820;48.682;8.890;2022-08-05T08:52:21;2.50;;;1.58;;
26223;SDS011;14820;48.682;8.890;2022-08-05T08:54:50;4.40;;;1.70;;
26223;SDS011;14820;48.682;8.890;2022-08-05T08:57:17;1.60;;;1.50;;
26223;SDS011;14820;48.682;8.890;2022-08-05T08:59:43;3.13;;;1.63;;
26223;SDS011;14820;48.682;8.890;2022-08-05T09:02:10;1.40;;;1.30;;
26223;SDS011;14820;48.682;8.890;2022-08-05T09:04:36;2.88;;;1.60;;
26223;SDS011;14820;48.682;8.890;2022-08-05T09:07:08;3.30;;;1.30;;
26223;SDS011;14820;48.682;8.890;2022-08-05T09:09:34;2.20;;;1.60;;
26223;SDS011;14820;48.682;8.890;2022-08-05T09:12:04;3.25;;;1.40;;
26223;SDS011;14820;48.682;8.890;2022-08-05T09:14:33;2.30;;;1.60;;
26223;SDS011;14820;48.682;8.890;2022-08-05T09:17:03;1.55;;;1.42;;
26223;SDS011;14820;48.682;8.890;2022-08-05T09:19:31;3.65;;;1.58;;
26223;SDS011;14820;48.682;8.890;2022-08-05T09:21:57;1.48;;;1.38;;
26223;SDS011;14820;48.682;8.890;2022-08-05T09:24:23;3.08;;;1.60;;
26223;SDS011;14820;48.682;8.890;2022-08-05T09:26:52;2.28;;;1.50;;
26223;SDS011;14820;48.682;8.890;2022-08-05T09:29:35;2.35;;;1.40;;
26223;SDS011;14820;48.682;8.890;2022-08-05T09:32:03;2.03;;;1.30;;
26223;SDS011;14820;48.682;8.890;2022-08-05T09:34:52;5.57;;;1.58;;
26223;SDS011;14820;48.682;8.890;2022-08-05T09:37:20;2.00;;;1.50;;
26223;SDS011;14820;48.682;8.890;2022-08-05T09:39:47;2.03;;;1.50;;
26223;SDS011;14820;48.682;8.890;2022-08-05T09:42:15;2.28;;;1.80;;
26223;SDS011;14820;48.682;8.890;2022-08-05T09:44:43;7.32;;;1.70;;
26223;SDS011;14820;48.682;8.890;2022-08-05T09:47:13;3.22;;;1.38;;
26223;SDS011;14820;48.682;8.890;2022-08-05T09:55:21;2.80;;;1.70;;
26223;SDS011;14820;48.682;8.890;2022-08-05T09:57:40;1.88;;;1.60;;
26223;SDS011;14820;48.682;8.890;2022-08-05T10:05:16;3.45;;;1.60;;
26223;SDS011;14820;48.682;8.890;2022-08-05T10:10:15;3.05;;;1.60;;
26223;SDS011;14820;48.682;8.890;2022-08-05T10:12:49;2.20;;;1.50;;
26223;SDS011;14820;48.682;8.890;2022-08-05T10:15:20;1.65;;;1.35;;
26223;SDS011;14820;48.682;8.890;2022-08-05T10:18:00;1.50;;;1.40;;
26223;SDS011;14820;48.682;8.890;2022-08-05T10:20:30;1.50;;;1.40;;
26223;SDS011;14820;48.682;8.890;2022-08-05T10:22:56;1.75;;;1.40;;
26223;SDS011;14820;48.682;8.890;2022-08-05T10:25:22;2.00;;;1.60;;
26223;SDS011;14820;48.682;8.890;2022-08-05T10:27:48;1.98;;;1.45;;
26223;SDS011;14820;48.682;8.890;2022-08-05T10:30:14;2.03;;;1.40;;
26223;SDS011;14820;48.682;8.890;2022-08-05T10:32:40;2.55;;;1.60;;
26223;SDS011;14820;48.682;8.890;2022-08-05T10:35:06;1.95;;;1.50;;
26223;SDS011;14820;48.682;8.890;2022-08-05T10:37:32;1.48;;;1.30;;
26223;SDS011;14820;48.682;8.890;2022-08-05T10:39:59;2.10;;;1.40;;
26223;SDS011;14820;48.682;8.890;2022-08-05T10:42:29;3.78;;;1.67;;
26223;SDS011;14820;48.682;8.890;2022-08-05T10:45:01;2.22;;;1.60;;
26223;SDS011;14820;48.682;8.890;2022-08-05T10:47:31;2.28;;;1.48;;
26223;SDS011;14820;48.682;8.890;2022-08-05T10:50:08;1.98;;;1.38;;
26223;SDS011;14820;48.682;8.890;2022-08-05T10:52:38;5.75;;;1.60;;
26223;SDS011;14820;48.682;8.890;2022-08-05T10:55:11;3.65;;;1.40;;
26223;SDS011;14820;48.682;8.890;2022-08-05T10:57:38;1.58;;;1.45;;
26223;SDS011;14820;48.682;8.890;2022-08-05T11:00:22;1.52;;;1.38;;
26223;SDS011;14820;48.682;8.890;2022-08-05T11:05:33;2.50;;;1.67;;
26223;SDS011;14820;48.682;8.890;2022-08-05T11:10:28;6.15;;;1.58;;
26223;SDS011;14820;48.682;8.890;2022-08-05T11:12:55;3.22;;;1.60;;
26223;SDS011;14820;48.682;8.890;2022-08-05T11:20:50;1.80;;;1.25;;
26223;SDS011;14820;48.682;8.890;2022-08-05T11:33:31;2.17;;;1.42;;
26223;SDS011;14820;48.682;8.890;2022-08-05T11:36:07;2.10;;;1.42;;
26223;SDS011;14820;48.682;8.890;2022-08-05T11:41:22;2.00;;;1.70;;
26223;SDS011;14820;48.682;8.890;2022-08-05T11:49:07;1.80;;;1.70;;
26223;SDS011;14820;48.682;8.890;2022-08-05T11:51:43;3.50;;;1.80;;
26223;SDS011;14820;48.682;8.890;2022-08-05T11:54:10;3.97;;;1.60;;
26223;SDS011;14820;48.682;8.890;2022-08-05T11:56:47;2.97;;;1.63;;
26223;SDS011;14820;48.682;8.890;2022-08-05T11:59:21;2.05;;;1.50;;
26223;SDS011;14820;48.682;8.890;2022-08-05T12:01:54;2.95;;;1.60;;
26223;SDS011;14820;48.682;8.890;2022-08-05T12:04:25;2.80;;;1.73;;
26223;SDS011;14820;48.682;8.890;2022-08-05T12:06:53;1.70;;;1.60;;
26223;SDS011;14820;48.682;8.890;2022-08-05T12:09:23;1.83;;;1.50;;
26223;SDS011;14820;48.682;8.890;2022-08-05T12:11:51;2.05;;;1.50;;
26223;SDS011;14820;48.682;8.890;2022-08-05T12:14:17;2.00;;;1.50;;
26223;SDS011;14820;48.682;8.890;2022-08-05T12:16:43;2.33;;;1.60;;
26223;SDS011;14820;48.682;8.890;2022-08-05T12:19:11;3.10;;;1.88;;
26223;SDS011;14820;48.682;8.890;2022-08-05T12:21:44;1.38;;;1.27;;
26223;SDS011;14820;48.682;8.890;2022-08-05T12:24:16;2.28;;;1.65;;
26223;SDS011;14820;48.682;8.890;2022-08-05T12:26:47;2.00;;;1.48;;
26223;SDS011;14820;48.682;8.890;2022-08-05T12:29:25;2.67;;;1.70;;
26223;SDS011;14820;48.682;8.890;2022-08-05T12:31:53;2.13;;;1.60;;
26223;SDS011;14820;48.682;8.890;2022-08-05T12:34:33;2.67;;;1.83;;
26223;SDS011;14820;48.682;8.890;2022-08-05T12:37:02;2.50;;;1.80;;
26223;SDS011;14820;48.682;8.890;2022-08-05T12:39:36;2.15;;;1.75;;
26223;SDS011;14820;48.682;8.890;2022-08-05T12:42:06;2.83;;;1.70;;
26223;SDS011;14820;48.682;8.890;2022-08-05T12:44:37;2.53;;;1.83;;
26223;SDS011;14820;48.682;8.890;2022-08-05T12:47:04;2.80;;;1.85;;
26223;SDS011;14820;48.682;8.890;2022-08-05T12:49:40;4.85;;;1.77;;
26223;SDS011;14820;48.682;8.890;2022-08-05T12:52:17;3.13;;;1.70;;
26223;SDS011;14820;48.682;8.890;2022-08-05T12:54:44;1.85;;;1.60;;
26223;SDS011;14820;48.682;8.890;2022-08-05T12:57:12;2.45;;;1.70;;
26223;SDS011;14820;48.682;8.890;2022-08-05T12:59:46;5.65;;;1.85;;
26223;SDS011;14820;48.682;8.890;2022-08-05T13:02:18;2.75;;;1.92;;
26223;SDS011;14820;48.682;8.890;2022-08-05T13:04:46;1.77;;;1.63;;
26223;SDS011;14820;48.682;8.890;2022-08-05T13:07:17;1.80;;;1.58;;
26223;SDS011;14820;48.682;8.890;2022-08-05T13:09:51;2.10;;;1.60;;
26223;SDS011;14820;48.682;8.890;2022-08-05T13:12:23;2.70;;;1.67;;
26223;SDS011;14820;48.682;8.890;2022-08-05T13:14:50;4.72;;;2.00;;
26223;SDS011;14820;48.682;8.890;2022-08-05T13:17:24;1.83;;;1.63;;
26223;SDS011;14820;48.682;8.890;2022-08-05T13:22:36;9.45;;;1.80;;
26223;SDS011;14820;48.682;8.890;2022-08-05T13:25:10;1.85;;;1.60;;
26223;SDS011;14820;48.682;8.890;2022-08-05T13:27:41;1.85;;;1.60;;
26223;SDS011;14820;48.682;8.890;2022-08-05T13:30:11;1.80;;;1.70;;
26223;SDS011;14820;48.682;8.890;2022-08-05T13:32:38;2.10;;;1.90;;
26223;SDS011;14820;48.682;8.890;2022-08-05T13:35:04;2.13;;;1.80;;
26223;SDS011;14820;48.682;8.890;2022-08-05T13:37:31;2.33;;;1.67;;
26223;SDS011;14820;48.682;8.890;2022-08-05T13:39:57;4.00;;;1.75;;
26223;SDS011;14820;48.682;8.890;2022-08-05T13:42:23;2.13;;;1.60;;
26223;SDS011;14820;48.682;8.890;2022-08-05T13:44:52;3.00;;;1.80;;
26223;SDS011;14820;48.682;8.890;2022-08-05T13:47:19;1.60;;;1.50;;
26223;SDS011;14820;48.682;8.890;2022-08-05T13:49:45;3.33;;;1.90;;
26223;SDS011;14820;48.682;8.890;2022-08-05T13:52:18;3.13;;;1.63;;
26223;SDS011;14820;48.682;8.890;2022-08-05T13:54:45;2.28;;;1.75;;
26223;SDS011;14820;48.682;8.890;2022-08-05T13:57:11;2.50;;;1.65;;
26223;SDS011;14820;48.682;8.890;2022-08-05T13:59:37;2.60;;;1.63;;
26223;SDS011;14820;48.682;8.890;2022-08-05T14:02:05;2.90;;;1.67;;
26223;SDS011;14820;48.682;8.890;2022-08-05T14:04:34;4.60;;;2.08;;
26223;SDS011;14820;48.682;8.890;2022-08-05T14:07:23;3.00;;;1.92;;
26223;SDS011;14820;48.682;8.890;2022-08-05T14:09:51;2.00;;;1.60;;
26223;SDS011;14820;48.682;8.890;2022-08-05T14:12:17;2.90;;;1.80;;
26223;SDS011;14820;48.682;8.890;2022-08-05T14:14:43;3.10;;;1.80;;
26223;SDS011;14820;48.682;8.890;2022-08-05T14:17:08;3.05;;;1.80;;
26223;SDS011;14820;48.682;8.890;2022-08-05T14:19:34;3.58;;;1.73;;
26223;SDS011;14820;48.682;8.890;2022-08-05T14:22:00;3.63;;;1.80;;
26223;SDS011;14820;48.682;8.890;2022-08-05T14:24:26;2.97;;;1.98;;
26223;SDS011;14820;48.682;8.890;2022-08-05T14:26:51;2.13;;;1.50;;
26223;SDS011;14820;48.682;8.890;2022-08-05T14:29:17;2.33;;;1.83;;
26223;SDS011;14820;48.682;8.890;2022-08-05T14:31:43;2.67;;;2.00;;
26223;SDS011;14820;48.682;8.890;2022-08-05T14:34:09;2.03;;;1.70;;
26223;SDS011;14820;48.682;8.890;2022-08-05T14:36:35;2.78;;;1.95;;
26223;SDS011;14820;48.682;8.890;2022-08-05T14:39:01;4.40;;;1.88;;
26223;SDS011;14820;48.682;8.890;2022-08-05T14:41:27;2.97;;;1.73;;
26223;SDS011;14820;48.682;8.890;2022-08-05T14:43:53;3.60;;;1.80;;
26223;SDS011;14820;48.682;8.890;2022-08-05T14:46:20;3.63;;;1.85;;
26223;SDS011;14820;48.682;8.890;2022-08-05T14:48:46;3.55;;;2.00;;
26223;SDS011;14820;48.682;8.890;2022-08-05T14:51:12;3.35;;;2.00;;
26223;SDS011;14820;48.682;8.890;2022-08-05T14:53:37;2.45;;;1.90;;
26223;SDS011;14820;48.682;8.890;2022-08-05T14:56:03;2.15;;;1.83;;
26223;SDS011;14820;48.682;8.890;2022-08-05T14:58:29;3.95;;;1.90;;
26223;SDS011;14820;48.682;8.890;2022-08-05T15:00:54;2.33;;;1.75;;
26223;SDS011;14820;48.682;8.890;2022-08-05T15:03:20;2.10;;;1.90;;
26223;SDS011;14820;48.682;8.890;2022-08-05T15:05:46;2.72;;;1.90;;
26223;SDS011;14820;48.682;8.890;2022-08-05T15:08:12;6.70;;;2.15;;
26223;SDS011;14820;48.682;8.890;2022-08-05T15:10:37;8.30;;;2.00;;
26223;SDS011;14820;48.682;8.890;2022-08-05T15:13:05;3.17;;;1.90;;
26223;SDS011;14820;48.682;8.890;2022-08-05T15:15:31;3.75;;;2.20;;
26223;SDS011;14820;48.682;8.890;2022-08-05T15:17:56;3.00;;;2.33;;
26223;SDS011;14820;48.682;8.890;2022-08-05T15:20:22;3.38;;;2.30;;
26223;SDS011;14820;48.682;8.890;2022-08-05T15:22:49;6.47;;;2.25;;
26223;SDS011;14820;48.682;8.890;2022-08-05T15:25:15;5.53;;;2.28;;
26223;SDS011;14820;48.682;8.890;2022-08-05T15:27:41;2.15;;;1.95;;
26223;SDS011;14820;48.682;8.890;2022-08-05T15:30:07;5.85;;;2.25;;
26223;SDS011;14820;48.682;8.890;2022-08-05T15:32:34;6.68;;;2.55;;
26223;SDS011;14820;48.682;8.890;2022-08-05T15:35:00;3.95;;;2.55;;
26223;SDS011;14820;48.682;8.890;2022-08-05T15:37:26;4.20;;;2.70;;
26223;SDS011;14820;48.682;8.890;2022-08-05T15:39:52;2.90;;;2.30;;
26223;SDS011;14820;48.682;8.890;2022-08-05T15:42:21;3.75;;;2.40;;
26223;SDS011;14820;48.682;8.890;2022-08-05T15:44:49;3.15;;;2.75;;
26223;SDS011;14820;48.682;8.890;2022-08-05T15:47:15;4.20;;;2.50;;